createdAt,value
2022-11-30T00:01:54.329Z,21.89
2022-11-30T00:04:20.724Z,21.89
2022-11-30T00:06:47.037Z,21.88
2022-11-30T00:09:13.433Z,21.85
2022-11-30T00:11:39.780Z,21.88
2022-11-30T00:14:06.088Z,21.88
2022-11-30T00:16:32.545Z,21.85
2022-11-30T00:18:58.915Z,21.87
2022-11-30T00:21:25.241Z,21.86
2022-11-30T00:23:51.553Z,21.83
2022-11-30T00:26:18.269Z,21.83
2022-11-30T00:28:45.732Z,21.82
2022-11-30T00:31:12.984Z,21.81
2022-11-30T00:33:39.341Z,21.80
2022-11-30T00:36:06.517Z,21.80
2022-11-30T00:38:32.843Z,21.81
2022-11-30T00:40:59.803Z,21.79
2022-11-30T00:43:26.113Z,21.77
2022-11-30T00:45:52.489Z,21.80
2022-11-30T00:48:18.847Z,21.79
2022-11-30T00:50:45.168Z,21.78
2022-11-30T00:53:11.490Z,21.77
2022-11-30T00:55:37.808Z,21.77
2022-11-30T00:58:04.305Z,21.75
2022-11-30T01:00:30.719Z,21.75
2022-11-30T01:02:57.036Z,21.77
2022-11-30T01:05:23.368Z,21.74
2022-11-30T01:07:49.781Z,21.78
2022-11-30T01:10:16.128Z,21.78
2022-11-30T01:12:42.522Z,21.74
2022-11-30T01:15:09.012Z,21.76
2022-11-30T01:17:35.325Z,21.75
2022-11-30T01:20:01.678Z,21.74
2022-11-30T01:22:28.006Z,21.75
2022-11-30T01:24:54.339Z,21.73
2022-11-30T01:27:20.700Z,21.74
2022-11-30T01:29:47.028Z,21.71
2022-11-30T01:32:13.365Z,21.71
2022-11-30T01:34:39.692Z,21.72
2022-11-30T01:37:07.950Z,21.69
2022-11-30T01:39:34.278Z,21.69
2022-11-30T01:42:00.616Z,21.68
2022-11-30T01:44:27.200Z,21.67
2022-11-30T01:47:06.178Z,21.65
2022-11-30T01:49:33.389Z,21.67
2022-11-30T01:52:00.954Z,21.63
2022-11-30T01:54:30.012Z,21.63
2022-11-30T01:56:56.795Z,21.62
2022-11-30T01:59:23.484Z,21.63
2022-11-30T02:01:49.963Z,21.59
2022-11-30T02:04:20.543Z,21.60
2022-11-30T02:06:47.330Z,21.62
2022-11-30T02:09:13.640Z,21.63
2022-11-30T02:11:39.968Z,21.62
2022-11-30T02:14:22.545Z,21.63
2022-11-30T02:16:48.793Z,21.63
2022-11-30T02:19:37.657Z,21.64
2022-11-30T02:22:07.296Z,21.65
2022-11-30T02:24:52.271Z,21.64
2022-11-30T02:27:22.287Z,21.63
2022-11-30T02:29:56.254Z,21.64
2022-11-30T02:32:24.490Z,21.63
2022-11-30T02:34:51.080Z,21.63
2022-11-30T02:37:17.418Z,21.62
2022-11-30T02:39:43.795Z,21.60
2022-11-30T02:42:11.059Z,21.61
2022-11-30T02:44:37.375Z,21.60
2022-11-30T02:47:22.601Z,21.58
2022-11-30T02:49:53.973Z,21.57
2022-11-30T02:52:21.353Z,21.58
2022-11-30T02:54:47.972Z,21.57
2022-11-30T02:57:14.536Z,21.55
2022-11-30T02:59:40.857Z,21.55
2022-11-30T03:02:07.560Z,21.53
2022-11-30T03:04:33.876Z,21.52
2022-11-30T03:07:00.247Z,21.53
2022-11-30T03:09:26.564Z,21.52
2022-11-30T03:11:52.927Z,21.51
2022-11-30T03:14:19.240Z,21.51
2022-11-30T03:16:45.573Z,21.50
2022-11-30T03:19:12.503Z,21.49
2022-11-30T03:21:38.833Z,21.47
2022-11-30T03:24:05.290Z,21.48
2022-11-30T03:26:31.648Z,21.48
2022-11-30T03:28:57.964Z,21.47
2022-11-30T03:31:24.312Z,21.48
2022-11-30T03:33:50.670Z,21.48
2022-11-30T03:36:17.000Z,21.48
2022-11-30T03:38:43.339Z,21.47
2022-11-30T03:41:14.061Z,21.47
2022-11-30T03:43:40.494Z,21.50
2022-11-30T03:46:06.878Z,21.54
2022-11-30T03:48:33.341Z,21.55
2022-11-30T03:50:59.671Z,21.57
2022-11-30T03:53:25.997Z,21.60
2022-11-30T03:55:56.561Z,21.60
2022-11-30T03:58:22.900Z,21.62
2022-11-30T04:00:49.227Z,21.63
2022-11-30T04:03:15.839Z,21.61
2022-11-30T04:05:42.618Z,21.61
2022-11-30T04:08:09.034Z,21.62
2022-11-30T04:10:35.359Z,21.63
2022-11-30T04:13:01.673Z,21.64
2022-11-30T04:15:28.005Z,21.66
2022-11-30T04:17:54.327Z,21.67
2022-11-30T04:20:20.679Z,21.68
2022-11-30T04:22:47.009Z,21.67
2022-11-30T04:25:13.320Z,21.69
2022-11-30T04:27:39.716Z,21.68
2022-11-30T04:30:06.478Z,21.69
2022-11-30T04:32:32.794Z,21.67
2022-11-30T04:34:59.131Z,21.69
2022-11-30T04:37:25.456Z,21.69
2022-11-30T04:39:51.793Z,21.69
2022-11-30T04:42:18.165Z,21.72
2022-11-30T04:44:44.708Z,21.70
2022-11-30T04:47:11.267Z,21.69
2022-11-30T04:49:37.609Z,21.71
2022-11-30T04:52:03.910Z,21.70
2022-11-30T04:54:30.216Z,21.67
2022-11-30T04:56:56.538Z,21.68
2022-11-30T04:59:22.843Z,21.66
2022-11-30T05:01:49.251Z,21.66
2022-11-30T05:04:15.713Z,21.66
2022-11-30T05:06:42.156Z,21.70
2022-11-30T05:09:08.478Z,21.72
2022-11-30T05:11:34.850Z,21.72
2022-11-30T05:14:01.174Z,21.72
2022-11-30T05:16:27.594Z,21.73
2022-11-30T05:18:53.923Z,21.74
2022-11-30T05:21:20.257Z,21.74
2022-11-30T05:23:48.690Z,21.72
2022-11-30T05:26:15.281Z,21.72
2022-11-30T05:28:41.605Z,21.72
2022-11-30T05:31:08.014Z,21.72
2022-11-30T05:33:34.434Z,21.74
2022-11-30T05:36:04.541Z,21.75
2022-11-30T05:38:33.593Z,21.78
2022-11-30T05:41:00.737Z,21.77
2022-11-30T05:43:27.144Z,21.75
2022-11-30T05:45:58.644Z,21.77
2022-11-30T05:48:24.974Z,21.75
2022-11-30T05:50:51.302Z,21.73
2022-11-30T05:53:17.631Z,21.73
2022-11-30T05:55:44.588Z,21.66
2022-11-30T05:58:10.892Z,21.53
2022-11-30T06:00:37.204Z,21.74
2022-11-30T06:03:03.662Z,21.60
2022-11-30T06:05:30.073Z,21.63
2022-11-30T06:07:58.587Z,21.67
2022-11-30T06:10:25.814Z,21.73
2022-11-30T06:12:52.144Z,21.80
2022-11-30T06:15:18.483Z,21.83
2022-11-30T06:17:44.801Z,21.80
2022-11-30T06:20:11.198Z,21.83
2022-11-30T06:22:37.522Z,21.88
2022-11-30T06:25:04.500Z,21.87
2022-11-30T06:27:31.574Z,21.82
2022-11-30T06:29:57.884Z,21.80
2022-11-30T06:32:24.205Z,21.79
2022-11-30T06:34:50.525Z,21.75
2022-11-30T06:37:16.869Z,21.73
2022-11-30T06:40:05.465Z,21.70
2022-11-30T06:42:30.724Z,21.69
2022-11-30T06:44:57.046Z,21.70
2022-11-30T06:47:23.373Z,21.72
2022-11-30T06:49:49.683Z,21.70
2022-11-30T06:52:16.111Z,21.60
2022-11-30T06:54:42.450Z,21.58
2022-11-30T06:57:08.759Z,21.61
2022-11-30T06:59:36.830Z,21.61
2022-11-30T07:02:08.819Z,21.57
2022-11-30T07:04:37.081Z,21.56
2022-11-30T07:07:03.403Z,21.54
2022-11-30T07:09:29.714Z,21.53
2022-11-30T07:11:56.056Z,21.49
2022-11-30T07:14:22.379Z,21.48
2022-11-30T07:16:48.723Z,21.49
2022-11-30T07:19:15.072Z,21.48
2022-11-30T07:21:41.384Z,21.47
2022-11-30T07:24:26.702Z,21.47
2022-11-30T07:26:53.026Z,21.52
2022-11-30T07:29:19.347Z,21.51
2022-11-30T07:31:48.534Z,21.48
2022-11-30T07:34:14.904Z,21.43
2022-11-30T07:36:41.263Z,21.44
2022-11-30T07:39:07.638Z,21.43
2022-11-30T07:41:33.970Z,21.43
2022-11-30T07:44:03.592Z,21.39
2022-11-30T07:46:31.485Z,21.43
2022-11-30T07:48:57.820Z,21.41
2022-11-30T07:51:24.139Z,21.39
2022-11-30T07:53:50.458Z,21.37
2022-11-30T07:56:19.628Z,21.38
2022-11-30T07:58:46.234Z,21.38
2022-11-30T08:01:13.346Z,21.36
2022-11-30T08:03:39.758Z,21.34
2022-11-30T08:06:07.243Z,21.33
2022-11-30T08:08:34.113Z,21.31
2022-11-30T08:11:00.420Z,21.33
2022-11-30T08:13:26.741Z,21.36
2022-11-30T08:15:53.065Z,21.36
2022-11-30T08:18:19.381Z,21.36
2022-11-30T08:20:50.283Z,21.33
2022-11-30T08:23:16.647Z,21.34
2022-11-30T08:25:42.957Z,21.36
2022-11-30T08:28:09.511Z,21.29
2022-11-30T08:30:36.036Z,21.31
2022-11-30T08:33:02.645Z,21.32
2022-11-30T08:35:28.948Z,21.32
2022-11-30T08:37:55.258Z,21.34
2022-11-30T08:40:21.578Z,21.36
2022-11-30T08:42:47.885Z,21.36
2022-11-30T08:45:14.221Z,21.37
2022-11-30T08:47:40.531Z,21.39
2022-11-30T08:50:06.941Z,21.40
2022-11-30T08:52:33.264Z,21.40
2022-11-30T08:54:59.568Z,21.42
2022-11-30T08:57:26.741Z,21.42
2022-11-30T08:59:53.056Z,21.43
2022-11-30T09:02:19.624Z,21.43
2022-11-30T09:04:47.489Z,21.43
2022-11-30T09:07:13.821Z,21.42
2022-11-30T09:09:40.164Z,21.42
2022-11-30T09:12:06.829Z,21.41
2022-11-30T09:14:33.149Z,21.41
2022-11-30T09:16:59.474Z,21.40
2022-11-30T09:19:25.803Z,21.40
2022-11-30T09:21:52.762Z,21.42
2022-11-30T09:24:19.659Z,21.42
2022-11-30T09:26:46.008Z,21.43
2022-11-30T09:29:12.330Z,21.43
2022-11-30T09:31:38.643Z,21.43
2022-11-30T09:34:05.261Z,21.42
2022-11-30T09:36:32.945Z,21.30
2022-11-30T09:38:59.256Z,21.27
2022-11-30T09:41:28.547Z,21.29
2022-11-30T09:44:10.008Z,21.31
2022-11-30T09:46:54.953Z,21.14
2022-11-30T09:49:25.015Z,20.06
2022-11-30T09:51:52.493Z,19.18
2022-11-30T09:54:20.622Z,18.94
2022-11-30T09:56:46.929Z,18.48
2022-11-30T09:59:20.263Z,18.73
2022-11-30T10:01:51.993Z,19.40
2022-11-30T10:04:23.652Z,19.92
2022-11-30T10:07:08.657Z,19.40
2022-11-30T10:09:38.803Z,19.00
2022-11-30T10:12:06.044Z,19.03
2022-11-30T10:14:48.946Z,18.96
2022-11-30T10:17:15.441Z,18.72
2022-11-30T10:19:46.529Z,19.74
2022-11-30T10:22:13.744Z,20.25
2022-11-30T10:24:43.043Z,20.40
2022-11-30T10:27:21.824Z,20.44
2022-11-30T10:29:48.145Z,20.46
2022-11-30T10:32:21.280Z,20.48
2022-11-30T10:34:54.519Z,20.56
2022-11-30T10:37:34.149Z,20.61
2022-11-30T10:40:04.810Z,20.66
2022-11-30T10:42:43.149Z,20.70
2022-11-30T10:45:10.838Z,20.71
2022-11-30T10:47:38.598Z,20.74
2022-11-30T10:50:04.975Z,20.77
2022-11-30T10:52:32.177Z,20.78
2022-11-30T10:55:04.183Z,20.79
2022-11-30T10:57:31.636Z,20.85
2022-11-30T10:59:58.459Z,20.89
2022-11-30T11:02:34.939Z,20.89
2022-11-30T11:05:08.306Z,20.91
2022-11-30T11:07:34.686Z,20.08
2022-11-30T11:10:01.788Z,19.09
2022-11-30T11:12:28.318Z,19.14
2022-11-30T11:15:07.812Z,19.83
2022-11-30T11:17:34.198Z,20.28
2022-11-30T11:20:00.513Z,20.56
2022-11-30T11:22:27.299Z,20.70
2022-11-30T11:24:54.017Z,20.76
2022-11-30T11:27:20.281Z,20.80
2022-11-30T11:29:46.824Z,20.83
2022-11-30T11:32:13.321Z,20.82
2022-11-30T11:34:39.650Z,20.86
2022-11-30T11:37:07.463Z,20.80
2022-11-30T11:39:33.841Z,20.69
2022-11-30T11:42:00.363Z,20.70
2022-11-30T11:44:27.229Z,20.78
2022-11-30T11:46:55.894Z,20.81
2022-11-30T11:49:23.170Z,20.82
2022-11-30T11:51:49.505Z,20.85
2022-11-30T11:54:27.811Z,20.88
2022-11-30T11:56:54.704Z,20.90
2022-11-30T11:59:39.944Z,20.91
2022-11-30T12:02:21.212Z,20.91
2022-11-30T12:04:50.861Z,20.91
2022-11-30T12:07:19.860Z,20.93
2022-11-30T12:09:57.401Z,20.93
2022-11-30T12:12:23.718Z,20.93
2022-11-30T12:14:50.039Z,20.95
2022-11-30T12:17:35.365Z,20.97
2022-11-30T12:20:01.603Z,20.97
2022-11-30T12:22:44.141Z,20.98
2022-11-30T12:25:29.233Z,20.99
2022-11-30T12:28:16.512Z,20.75
2022-11-30T12:30:48.013Z,19.11
2022-11-30T12:33:25.311Z,19.62
2022-11-30T12:35:56.637Z,20.05
2022-11-30T12:38:31.609Z,20.36
2022-11-30T12:41:04.394Z,20.59
2022-11-30T12:43:36.557Z,20.73
2022-11-30T12:46:06.199Z,20.83
2022-11-30T12:48:38.640Z,20.87
2022-11-30T12:51:08.362Z,20.90
2022-11-30T12:53:53.601Z,20.87
2022-11-30T12:56:30.707Z,20.88
2022-11-30T12:59:00.802Z,20.92
2022-11-30T13:01:34.038Z,20.93
2022-11-30T13:04:04.761Z,20.96
2022-11-30T13:06:35.229Z,20.95
2022-11-30T13:09:04.578Z,20.95
2022-11-30T13:11:33.557Z,20.95
2022-11-30T13:13:59.981Z,20.93
2022-11-30T13:16:26.409Z,20.98
2022-11-30T13:18:52.855Z,20.98
2022-11-30T13:21:21.505Z,20.65
2022-11-30T13:24:03.794Z,20.81
2022-11-30T13:26:32.247Z,20.89
2022-11-30T13:29:04.001Z,20.93
2022-11-30T13:31:36.099Z,20.93
2022-11-30T13:34:02.527Z,20.96
2022-11-30T13:36:31.736Z,20.95
2022-11-30T13:39:13.248Z,20.97
2022-11-30T13:41:43.581Z,20.97
2022-11-30T13:44:28.929Z,20.98
2022-11-30T13:46:55.305Z,20.99
2022-11-30T13:49:22.769Z,21.01
2022-11-30T13:52:07.028Z,21.04
2022-11-30T13:54:51.266Z,21.07
2022-11-30T13:57:26.956Z,21.09
2022-11-30T13:59:53.708Z,21.09
2022-11-30T14:02:43.139Z,21.09
2022-11-30T14:05:18.599Z,21.09
2022-11-30T14:07:50.765Z,21.10
2022-11-30T14:10:27.347Z,21.11
2022-11-30T14:12:57.574Z,21.10
2022-11-30T14:15:31.815Z,21.10
2022-11-30T14:17:58.182Z,21.11
2022-11-30T14:20:25.157Z,21.12
2022-11-30T14:22:51.461Z,21.12
2022-11-30T14:25:18.262Z,21.14
2022-11-30T14:27:44.579Z,21.14
2022-11-30T14:30:17.931Z,21.16
2022-11-30T14:32:44.898Z,21.17
2022-11-30T14:35:15.924Z,21.17
2022-11-30T14:37:43.497Z,21.16
2022-11-30T14:40:18.447Z,21.17
2022-11-30T14:42:52.061Z,21.17
2022-11-30T14:45:25.469Z,21.16
2022-11-30T14:47:52.949Z,21.11
2022-11-30T14:50:23.732Z,21.10
2022-11-30T14:52:56.210Z,21.11
2022-11-30T14:55:25.467Z,21.12
2022-11-30T14:58:10.705Z,21.16
2022-11-30T15:00:40.617Z,21.16
2022-11-30T15:03:15.856Z,21.11
2022-11-30T15:05:42.185Z,21.11
2022-11-30T15:08:09.323Z,21.08
2022-11-30T15:10:36.062Z,21.12
2022-11-30T15:13:02.461Z,21.11
2022-11-30T15:15:29.616Z,21.11
2022-11-30T15:18:10.455Z,21.12
2022-11-30T15:20:38.120Z,21.11
2022-11-30T15:23:04.438Z,21.11
2022-11-30T15:25:35.017Z,21.17
2022-11-30T15:28:01.437Z,21.16
2022-11-30T15:30:27.982Z,21.14
2022-11-30T15:32:54.388Z,21.13
2022-11-30T15:35:21.873Z,21.15
2022-11-30T15:37:48.217Z,21.12
2022-11-30T15:40:14.688Z,21.12
2022-11-30T15:42:41.002Z,21.11
2022-11-30T15:45:09.970Z,21.12
2022-11-30T15:47:36.536Z,21.13
2022-11-30T15:50:03.307Z,21.13
2022-11-30T15:52:30.086Z,21.11
2022-11-30T15:55:02.142Z,21.10
2022-11-30T15:57:48.336Z,21.10
2022-11-30T16:00:14.574Z,21.10
2022-11-30T16:02:40.942Z,21.10
2022-11-30T16:05:13.786Z,21.10
2022-11-30T16:07:49.928Z,21.10
2022-11-30T16:10:16.272Z,21.10
2022-11-30T16:12:42.816Z,21.11
2022-11-30T16:15:25.016Z,21.10
2022-11-30T16:17:51.395Z,21.11
2022-11-30T16:20:17.759Z,21.10
2022-11-30T16:22:44.475Z,21.10
2022-11-30T16:25:14.611Z,21.10
2022-11-30T16:27:41.277Z,21.11
2022-11-30T16:30:07.808Z,21.08
2022-11-30T16:32:34.122Z,21.10
2022-11-30T16:35:01.663Z,21.08
2022-11-30T16:37:28.025Z,21.08
2022-11-30T16:39:54.353Z,21.10
2022-11-30T16:42:20.705Z,21.09
2022-11-30T16:44:47.025Z,21.10
2022-11-30T16:47:13.348Z,21.12
2022-11-30T16:49:39.688Z,21.14
2022-11-30T16:52:06.000Z,21.13
2022-11-30T16:54:32.420Z,21.14
2022-11-30T16:56:58.774Z,21.15
2022-11-30T16:59:25.080Z,21.13
2022-11-30T17:01:53.005Z,21.13
2022-11-30T17:04:20.281Z,21.14
2022-11-30T17:06:50.227Z,21.15
2022-11-30T17:09:17.552Z,21.15
2022-11-30T17:11:43.867Z,21.10
2022-11-30T17:14:10.844Z,21.04
2022-11-30T17:16:37.262Z,21.11
2022-11-30T17:19:03.633Z,21.11
2022-11-30T17:21:33.145Z,21.18
2022-11-30T17:23:59.486Z,21.21
2022-11-30T17:26:26.109Z,21.13
2022-11-30T17:28:52.458Z,21.09
2022-11-30T17:31:18.880Z,21.07
2022-11-30T17:33:48.330Z,21.06
2022-11-30T17:36:15.230Z,21.06
2022-11-30T17:38:43.869Z,21.08
2022-11-30T17:41:15.636Z,21.07
2022-11-30T17:43:45.089Z,21.09
2022-11-30T17:46:12.174Z,21.09
2022-11-30T17:48:38.500Z,21.11
2022-11-30T17:51:04.937Z,21.11
2022-11-30T17:53:31.284Z,21.13
2022-11-30T17:56:01.356Z,21.12
2022-11-30T17:58:32.547Z,21.15
2022-11-30T18:01:00.627Z,21.13
2022-11-30T18:03:27.062Z,21.15
2022-11-30T18:05:53.387Z,21.14
2022-11-30T18:08:19.708Z,21.12
2022-11-30T18:10:47.627Z,21.11
2022-11-30T18:13:14.349Z,21.11
2022-11-30T18:15:40.719Z,21.09
2022-11-30T18:18:07.047Z,21.09
2022-11-30T18:20:33.393Z,21.08
2022-11-30T18:22:59.706Z,21.08
2022-11-30T18:25:26.054Z,21.11
2022-11-30T18:27:52.687Z,21.14
2022-11-30T18:30:19.004Z,21.13
2022-11-30T18:32:45.321Z,21.15
2022-11-30T18:35:11.646Z,21.16
2022-11-30T18:37:37.959Z,21.16
2022-11-30T18:40:04.402Z,21.16
2022-11-30T18:42:30.706Z,21.19
2022-11-30T18:44:57.094Z,21.20
2022-11-30T18:47:23.421Z,21.20
2022-11-30T18:49:49.779Z,21.21
2022-11-30T18:52:16.094Z,21.21
2022-11-30T18:54:42.432Z,21.23
2022-11-30T18:57:08.886Z,21.22
2022-11-30T18:59:35.237Z,21.21
2022-11-30T19:02:01.615Z,21.18
2022-11-30T19:04:28.036Z,21.17
2022-11-30T19:06:54.339Z,21.16
2022-11-30T19:09:22.391Z,21.12
2022-11-30T19:11:48.704Z,21.12
2022-11-30T19:14:15.598Z,21.11
2022-11-30T19:16:42.070Z,21.10
2022-11-30T19:19:08.880Z,21.09
2022-11-30T19:21:35.212Z,20.56
2022-11-30T19:24:01.541Z,20.81
2022-11-30T19:26:28.417Z,20.84
2022-11-30T19:28:55.099Z,20.97
2022-11-30T19:31:21.457Z,21.01
2022-11-30T19:33:48.530Z,21.11
2022-11-30T19:36:18.772Z,21.13
2022-11-30T19:38:45.169Z,21.12
2022-11-30T19:41:11.968Z,21.12
2022-11-30T19:43:38.291Z,21.12
2022-11-30T19:46:08.168Z,21.16
2022-11-30T19:48:34.657Z,21.13
2022-11-30T19:51:03.725Z,21.11
2022-11-30T19:53:31.890Z,21.12
2022-11-30T19:55:58.200Z,21.15
2022-11-30T19:58:24.536Z,21.15
2022-11-30T20:00:50.876Z,21.15
2022-11-30T20:03:17.246Z,21.13
2022-11-30T20:05:49.978Z,21.13
2022-11-30T20:08:16.369Z,21.13
2022-11-30T20:10:42.696Z,21.13
2022-11-30T20:13:09.008Z,21.13
2022-11-30T20:15:37.323Z,21.12
2022-11-30T20:18:03.645Z,21.10
2022-11-30T20:20:30.016Z,21.12
2022-11-30T20:22:56.825Z,21.11
2022-11-30T20:25:23.207Z,21.13
2022-11-30T20:27:49.958Z,21.12
2022-11-30T20:30:16.549Z,21.14
2022-11-30T20:32:43.284Z,21.17
2022-11-30T20:35:09.924Z,21.16
2022-11-30T20:37:36.553Z,21.19
2022-11-30T20:40:05.738Z,21.19
2022-11-30T20:42:32.079Z,21.19
2022-11-30T20:44:58.415Z,21.18
2022-11-30T20:47:24.736Z,21.18
2022-11-30T20:49:51.082Z,21.18
2022-11-30T20:52:17.399Z,21.16
2022-11-30T20:54:43.719Z,21.16
2022-11-30T20:57:10.033Z,21.16
2022-11-30T20:59:36.355Z,21.15
2022-11-30T21:02:02.785Z,21.14
2022-11-30T21:04:29.159Z,21.12
2022-11-30T21:06:55.596Z,21.11
2022-11-30T21:09:21.913Z,21.15
2022-11-30T21:11:48.244Z,21.13
2022-11-30T21:14:14.615Z,21.11
2022-11-30T21:16:40.956Z,21.10
2022-11-30T21:19:07.313Z,21.10
2022-11-30T21:21:34.189Z,21.12
2022-11-30T21:24:01.312Z,21.13
2022-11-30T21:26:31.875Z,21.15
2022-11-30T21:28:59.104Z,21.15
2022-11-30T21:31:25.526Z,21.19
2022-11-30T21:33:53.645Z,21.20
2022-11-30T21:36:20.321Z,21.18
2022-11-30T21:38:46.712Z,21.17
2022-11-30T21:41:13.040Z,21.16
2022-11-30T21:43:39.465Z,21.14
2022-11-30T21:46:06.605Z,21.13
2022-11-30T21:48:34.631Z,21.12
2022-11-30T21:51:01.845Z,21.10
2022-11-30T21:53:28.219Z,21.10
2022-11-30T21:55:55.937Z,21.11
2022-11-30T21:58:22.500Z,21.09
2022-11-30T22:00:55.797Z,21.13
2022-11-30T22:03:22.219Z,21.15
2022-11-30T22:06:07.620Z,21.15
2022-11-30T22:08:33.932Z,21.15
2022-11-30T22:11:01.145Z,21.09
2022-11-30T22:13:27.781Z,21.13
2022-11-30T22:15:58.151Z,21.17
2022-11-30T22:18:24.518Z,21.16
2022-11-30T22:20:50.849Z,21.14
2022-11-30T22:23:17.177Z,21.12
2022-11-30T22:25:43.519Z,21.10
2022-11-30T22:28:09.841Z,21.07
2022-11-30T22:30:36.172Z,21.05
2022-11-30T22:33:02.484Z,21.03
2022-11-30T22:35:28.810Z,21.05
2022-11-30T22:37:55.181Z,21.03
2022-11-30T22:40:21.517Z,21.01
2022-11-30T22:42:47.842Z,21.00
2022-11-30T22:45:14.198Z,20.99
2022-11-30T22:47:40.525Z,20.97
2022-11-30T22:50:07.325Z,20.98
2022-11-30T22:53:01.526Z,20.97
2022-11-30T22:55:20.119Z,20.97
2022-11-30T22:57:46.660Z,20.96
2022-11-30T23:00:13.169Z,20.93
2022-11-30T23:02:39.518Z,20.92
2022-11-30T23:05:06.111Z,20.91
2022-11-30T23:07:32.549Z,20.92
2022-11-30T23:09:58.989Z,20.90
2022-11-30T23:12:57.443Z,20.89
2022-11-30T23:15:11.604Z,20.89
2022-11-30T23:17:37.962Z,20.87
2022-11-30T23:20:04.586Z,20.87
2022-11-30T23:22:31.078Z,20.86
2022-11-30T23:24:57.389Z,20.86
2022-11-30T23:27:23.703Z,20.86
2022-11-30T23:29:50.296Z,20.85
2022-11-30T23:32:16.786Z,20.85
2022-11-30T23:34:46.885Z,20.85
2022-11-30T23:37:15.722Z,20.84
2022-11-30T23:39:42.100Z,20.84
2022-11-30T23:42:08.436Z,20.84
2022-11-30T23:44:35.166Z,20.83
2022-11-30T23:47:01.591Z,20.82
2022-11-30T23:49:27.930Z,20.81
2022-11-30T23:51:54.255Z,20.82
2022-11-30T23:54:20.576Z,20.84
2022-11-30T23:56:46.917Z,20.85
2022-11-30T23:59:13.254Z,20.85
